createdAt,value
2019-02-23T00:01:42.917Z,0.20
2019-02-23T00:04:16.361Z,0.20
2019-02-23T00:06:49.086Z,0.20
2019-02-23T00:09:21.608Z,0.20
2019-02-23T00:11:57.384Z,0.20
2019-02-23T00:14:28.021Z,0.20
2019-02-23T00:17:00.194Z,0.20
2019-02-23T00:19:30.797Z,0.20
2019-02-23T00:22:02.257Z,0.20
2019-02-23T00:24:33.180Z,0.20
2019-02-23T00:27:04.649Z,0.20
2019-02-23T00:29:35.622Z,0.30
2019-02-23T00:32:05.769Z,0.30
2019-02-23T00:34:36.489Z,0.30
2019-02-23T00:37:14.150Z,0.30
2019-02-23T00:39:46.516Z,0.30
2019-02-23T00:42:19.401Z,0.30
2019-02-23T00:44:50.708Z,0.30
2019-02-23T00:47:20.981Z,0.30
2019-02-23T00:49:52.132Z,0.40
2019-02-23T00:52:23.032Z,0.40
2019-02-23T00:54:56.168Z,0.30
2019-02-23T00:57:30.792Z,0.40
2019-02-23T01:00:01.795Z,0.40
2019-02-23T01:02:34.298Z,0.30
2019-02-23T01:05:05.666Z,0.30
2019-02-23T01:07:37.576Z,0.30
2019-02-23T01:10:09.947Z,0.30
2019-02-23T01:12:39.965Z,0.30
2019-02-23T01:15:12.778Z,0.30
2019-02-23T01:17:43.798Z,0.30
2019-02-23T01:20:17.391Z,0.30
2019-02-23T01:22:49.817Z,0.30
2019-02-23T01:25:21.096Z,0.30
2019-02-23T01:27:53.800Z,0.30
2019-02-23T01:30:24.746Z,0.30
2019-02-23T01:32:59.605Z,0.30
2019-02-23T01:35:32.282Z,0.20
2019-02-23T01:38:03.704Z,0.20
2019-02-23T01:40:37.310Z,0.20
2019-02-23T01:43:08.470Z,0.20
2019-02-23T01:45:58.375Z,0.30
2019-02-23T01:48:31.208Z,0.20
2019-02-23T01:51:05.156Z,0.20
2019-02-23T01:53:36.585Z,0.20
2019-02-23T01:56:09.970Z,0.20
2019-02-23T01:58:40.380Z,0.20
2019-02-23T02:01:09.628Z,0.20
2019-02-23T02:03:39.384Z,0.20
2019-02-23T02:06:09.097Z,0.20
2019-02-23T02:08:40.175Z,0.20
2019-02-23T02:11:13.448Z,0.20
2019-02-23T02:13:45.814Z,0.20
2019-02-23T02:16:18.444Z,0.30
2019-02-23T02:18:49.748Z,0.30
2019-02-23T02:21:21.873Z,0.30
2019-02-23T02:23:54.058Z,0.20
2019-02-23T02:26:26.173Z,0.20
2019-02-23T02:28:57.114Z,0.30
2019-02-23T02:31:28.413Z,0.30
2019-02-23T02:34:13.000Z,0.30
2019-02-23T02:36:44.605Z,0.40
2019-02-23T02:39:17.498Z,0.30
2019-02-23T02:41:48.937Z,0.40
2019-02-23T02:44:20.002Z,0.40
2019-02-23T02:46:48.780Z,0.40
2019-02-23T02:49:17.526Z,0.30
2019-02-23T02:51:50.608Z,0.40
2019-02-23T02:54:23.706Z,0.40
2019-02-23T02:56:55.381Z,0.30
2019-02-23T02:59:27.218Z,0.30
2019-02-23T03:01:59.016Z,0.30
2019-02-23T03:04:30.164Z,0.30
2019-02-23T03:07:02.151Z,0.20
2019-02-23T03:09:37.288Z,0.30
2019-02-23T03:12:07.581Z,0.20
2019-02-23T03:14:39.271Z,0.20
2019-02-23T03:17:11.850Z,0.20
2019-02-23T03:19:43.142Z,0.20
2019-02-23T03:22:15.961Z,0.20
2019-02-23T03:24:48.649Z,0.10
2019-02-23T03:27:20.083Z,0.20
2019-02-23T03:29:52.734Z,0.20
2019-02-23T03:32:23.895Z,0.20
2019-02-23T03:34:54.740Z,0.20
2019-02-23T03:37:26.613Z,0.20
2019-02-23T03:39:57.653Z,0.10
2019-02-23T03:42:29.159Z,0.20
2019-02-23T03:45:01.491Z,0.20
2019-02-23T03:47:36.585Z,0.20
2019-02-23T03:50:07.407Z,0.20
2019-02-23T03:52:38.462Z,0.20
2019-02-23T03:55:10.412Z,0.10
2019-02-23T03:57:43.113Z,0.10
2019-02-23T04:00:13.269Z,0.10
2019-02-23T04:02:42.458Z,0.10
2019-02-23T04:05:12.529Z,0.10
2019-02-23T04:07:43.385Z,0.10
2019-02-23T04:10:16.036Z,0.20
2019-02-23T04:12:50.472Z,0.20
2019-02-23T04:15:21.625Z,0.10
2019-02-23T04:17:52.906Z,0.20
2019-02-23T04:20:26.618Z,0.20
2019-02-23T04:22:58.165Z,0.20
2019-02-23T04:25:30.390Z,0.20
2019-02-23T04:28:01.351Z,0.20
2019-02-23T04:30:36.889Z,0.20
2019-02-23T04:33:10.288Z,0.20
2019-02-23T04:35:41.809Z,0.20
2019-02-23T04:38:15.197Z,0.20
2019-02-23T04:40:47.087Z,0.20
2019-02-23T04:43:19.722Z,0.20
2019-02-23T04:45:51.155Z,0.10
2019-02-23T04:48:20.312Z,0.20
2019-02-23T04:50:51.058Z,0.20
2019-02-23T04:53:20.254Z,0.20
2019-02-23T04:55:50.130Z,0.10
2019-02-23T04:58:23.561Z,0.10
2019-02-23T05:00:55.268Z,0.20
2019-02-23T05:03:28.812Z,0.20
2019-02-23T05:06:00.930Z,0.20
2019-02-23T05:08:32.244Z,0.20
2019-02-23T05:11:06.670Z,0.20
2019-02-23T05:13:38.444Z,0.10
2019-02-23T05:16:09.803Z,0.20
2019-02-23T05:18:41.707Z,0.20
2019-02-23T05:21:25.525Z,0.20
2019-02-23T05:23:48.617Z,0.20
2019-02-23T05:26:21.415Z,0.30
2019-02-23T05:28:57.684Z,0.20
2019-02-23T05:31:28.994Z,0.10
2019-02-23T05:33:59.380Z,0.20
2019-02-23T05:36:31.540Z,0.20
2019-02-23T05:39:02.482Z,0.20
2019-02-23T05:41:31.526Z,0.20
2019-02-23T05:44:02.404Z,0.20
2019-02-23T05:46:33.590Z,0.20
2019-02-23T05:49:04.110Z,0.20
2019-02-23T05:51:38.631Z,0.20
2019-02-23T05:54:07.083Z,0.20
2019-02-23T05:56:40.656Z,0.20
2019-02-23T05:59:10.998Z,0.20
2019-02-23T06:01:42.149Z,0.20
2019-02-23T06:04:15.333Z,0.20
2019-02-23T06:06:46.652Z,0.20
2019-02-23T06:09:19.276Z,0.20
2019-02-23T06:11:50.310Z,0.20
2019-02-23T06:14:25.143Z,0.20
2019-02-23T06:16:56.598Z,0.30
2019-02-23T06:19:29.017Z,0.20
2019-02-23T06:22:01.338Z,0.30
2019-02-23T06:24:34.108Z,0.30
2019-02-23T06:27:06.404Z,0.30
2019-02-23T06:29:39.141Z,0.30
2019-02-23T06:32:10.162Z,0.30
2019-02-23T06:34:44.994Z,0.30
2019-02-23T06:37:15.917Z,0.30
2019-02-23T06:39:48.437Z,0.40
2019-02-23T06:42:21.304Z,0.40
2019-02-23T06:44:52.789Z,0.40
2019-02-23T06:47:27.140Z,0.40
2019-02-23T06:49:57.972Z,0.40
2019-02-23T06:52:29.928Z,0.40
2019-02-23T06:55:02.638Z,0.40
2019-02-23T06:57:34.244Z,0.40
2019-02-23T07:00:05.845Z,0.40
2019-02-23T07:02:37.384Z,0.40
2019-02-23T07:05:08.959Z,0.40
2019-02-23T07:07:40.021Z,0.40
2019-02-23T07:10:11.123Z,0.40
2019-02-23T07:12:43.730Z,0.50
2019-02-23T07:15:13.396Z,0.50
2019-02-23T07:17:44.317Z,0.60
2019-02-23T07:20:15.997Z,0.50
2019-02-23T07:22:49.479Z,0.50
2019-02-23T07:25:22.289Z,0.70
2019-02-23T07:27:53.845Z,0.70
2019-02-23T07:30:27.510Z,0.80
2019-02-23T07:32:59.530Z,0.80
2019-02-23T07:35:33.448Z,0.80
2019-02-23T07:38:04.809Z,0.70
2019-02-23T07:40:38.500Z,0.80
2019-02-23T07:43:11.061Z,0.80
2019-02-23T07:45:43.710Z,0.90
2019-02-23T07:48:17.618Z,0.90
2019-02-23T07:50:52.513Z,1.00
2019-02-23T07:53:21.050Z,1.00
2019-02-23T07:55:52.494Z,1.00
2019-02-23T07:58:22.880Z,1.10
2019-02-23T08:00:53.300Z,1.10
2019-02-23T08:03:24.379Z,1.10
2019-02-23T08:05:55.521Z,1.20
2019-02-23T08:08:27.614Z,1.30
2019-02-23T08:10:59.908Z,1.30
2019-02-23T08:13:30.361Z,1.30
2019-02-23T08:16:03.233Z,1.40
2019-02-23T08:18:32.341Z,1.50
2019-02-23T08:21:02.364Z,1.50
2019-02-23T08:23:32.761Z,1.50
2019-02-23T08:26:04.243Z,1.60
2019-02-23T08:28:37.728Z,1.70
2019-02-23T08:31:09.242Z,1.70
2019-02-23T08:33:40.391Z,1.80
2019-02-23T08:36:11.987Z,1.80
2019-02-23T08:38:43.073Z,1.90
2019-02-23T08:41:16.710Z,2.00
2019-02-23T08:43:47.766Z,2.00
2019-02-23T08:46:19.320Z,2.10
2019-02-23T08:48:51.892Z,2.10
2019-02-23T08:51:24.805Z,2.20
2019-02-23T08:53:56.981Z,2.30
2019-02-23T08:56:30.863Z,2.30
2019-02-23T08:59:01.653Z,2.40
2019-02-23T09:01:35.359Z,2.50
2019-02-23T09:04:08.853Z,2.60
2019-02-23T09:06:42.602Z,2.70
2019-02-23T09:09:16.429Z,2.80
2019-02-23T09:11:47.803Z,2.80
2019-02-23T09:14:20.163Z,3.00
2019-02-23T09:16:52.216Z,3.10
2019-02-23T09:19:24.333Z,3.00
2019-02-23T09:21:56.324Z,3.00
2019-02-23T09:24:27.125Z,3.10
2019-02-23T09:26:57.028Z,3.20
2019-02-23T09:29:29.287Z,3.20
2019-02-23T09:32:01.829Z,3.30
2019-02-23T09:34:32.081Z,3.40
2019-02-23T09:37:03.597Z,3.50
2019-02-23T09:39:36.013Z,3.60
2019-02-23T09:42:07.734Z,3.70
2019-02-23T09:44:39.287Z,3.70
2019-02-23T09:47:12.177Z,3.70
2019-02-23T09:49:46.026Z,3.60
2019-02-23T09:52:16.124Z,3.60
2019-02-23T09:54:46.613Z,3.70
2019-02-23T09:57:17.072Z,3.70
2019-02-23T09:59:49.030Z,3.70
2019-02-23T10:02:21.451Z,3.70
2019-02-23T10:04:54.857Z,3.70
2019-02-23T10:07:27.658Z,3.70
2019-02-23T10:09:57.969Z,3.70
2019-02-23T10:12:30.579Z,3.80
2019-02-23T10:15:02.615Z,3.80
2019-02-23T10:17:36.147Z,4.00
2019-02-23T10:20:08.896Z,4.00
2019-02-23T10:22:41.256Z,4.10
2019-02-23T10:25:12.885Z,4.10
2019-02-23T10:27:43.785Z,4.00
2019-02-23T10:30:18.057Z,4.10
2019-02-23T10:32:50.710Z,4.30
2019-02-23T10:35:21.189Z,4.30
2019-02-23T10:37:53.712Z,4.30
2019-02-23T10:40:24.030Z,4.30
2019-02-23T10:42:55.437Z,4.40
2019-02-23T10:45:27.813Z,4.50
2019-02-23T10:48:00.884Z,4.60
2019-02-23T10:50:33.073Z,4.60
2019-02-23T10:53:05.579Z,4.60
2019-02-23T10:55:40.849Z,4.60
2019-02-23T10:58:14.321Z,4.60
2019-02-23T11:00:46.084Z,4.60
2019-02-23T11:03:15.891Z,4.60
2019-02-23T11:05:45.460Z,4.70
2019-02-23T11:08:15.262Z,4.70
2019-02-23T11:10:44.800Z,4.70
2019-02-23T11:13:15.819Z,4.70
2019-02-23T11:15:47.849Z,4.80
2019-02-23T11:18:19.185Z,4.80
2019-02-23T11:20:51.355Z,4.80
2019-02-23T11:23:22.563Z,4.80
2019-02-23T11:25:58.163Z,4.90
2019-02-23T11:28:29.441Z,5.00
2019-02-23T11:31:01.936Z,5.10
2019-02-23T11:33:33.842Z,5.10
2019-02-23T11:36:06.024Z,5.10
2019-02-23T11:38:38.454Z,5.20
2019-02-23T11:41:09.728Z,5.20
2019-02-23T11:43:40.768Z,5.20
2019-02-23T11:46:09.899Z,5.30
2019-02-23T11:48:40.789Z,5.20
2019-02-23T11:51:10.864Z,5.30
2019-02-23T11:53:42.216Z,5.30
2019-02-23T11:56:14.384Z,5.40
2019-02-23T11:59:03.981Z,5.40
2019-02-23T12:01:36.217Z,5.50
2019-02-23T12:04:08.419Z,5.60
2019-02-23T12:06:40.525Z,5.70
2019-02-23T12:09:14.937Z,5.70
2019-02-23T12:11:45.383Z,5.80
2019-02-23T12:14:18.937Z,5.80
2019-02-23T12:16:49.940Z,5.90
2019-02-23T12:19:22.933Z,5.90
2019-02-23T12:21:54.995Z,6.00
2019-02-23T12:24:25.765Z,6.00
2019-02-23T12:26:56.688Z,6.10
2019-02-23T12:29:30.241Z,6.20
2019-02-23T12:32:03.122Z,6.30
2019-02-23T12:34:35.880Z,6.40
2019-02-23T12:37:06.643Z,6.40
2019-02-23T12:39:38.602Z,6.40
2019-02-23T12:42:11.566Z,6.40
2019-02-23T12:44:42.450Z,6.30
2019-02-23T12:47:14.055Z,6.30
2019-02-23T12:49:45.828Z,6.30
2019-02-23T12:52:16.600Z,6.30
2019-02-23T12:54:50.132Z,6.30
2019-02-23T12:57:21.006Z,6.20
2019-02-23T12:59:53.408Z,6.30
2019-02-23T13:02:24.570Z,6.30
2019-02-23T13:04:56.903Z,6.20
2019-02-23T13:07:28.465Z,6.20
2019-02-23T13:09:59.352Z,6.10
2019-02-23T13:12:44.067Z,6.20
2019-02-23T13:15:30.160Z,6.20
2019-02-23T13:18:19.620Z,6.20
2019-02-23T13:21:12.480Z,6.10
2019-02-23T13:23:51.241Z,6.10
2019-02-23T13:26:30.795Z,6.10
2019-02-23T13:29:24.328Z,6.10
2019-02-23T13:32:15.980Z,6.10
2019-02-23T13:34:52.392Z,6.00
2019-02-23T13:37:32.521Z,5.90
2019-02-23T13:40:24.364Z,5.90
2019-02-23T13:43:13.689Z,5.90
2019-02-23T13:45:50.685Z,5.90
2019-02-23T13:48:39.172Z,5.90
2019-02-23T13:51:44.143Z,5.80
2019-02-23T13:54:38.880Z,5.90
2019-02-23T13:57:19.388Z,5.80
2019-02-23T14:00:09.898Z,5.80
2019-02-23T14:03:20.085Z,5.70
2019-02-23T14:06:15.738Z,5.70
2019-02-23T14:09:17.754Z,5.60
2019-02-23T14:12:25.082Z,5.50
2019-02-23T14:15:02.863Z,5.60
2019-02-23T14:17:45.670Z,5.50
2019-02-23T14:20:41.209Z,5.50
2019-02-23T14:23:19.979Z,5.50
2019-02-23T14:26:19.204Z,5.50
2019-02-23T14:29:12.460Z,5.40
2019-02-23T14:31:53.744Z,5.40
2019-02-23T14:34:47.399Z,5.40
2019-02-23T14:37:41.449Z,5.40
2019-02-23T14:40:20.131Z,5.40
2019-02-23T14:43:13.621Z,5.40
2019-02-23T14:45:56.868Z,5.40
2019-02-23T14:48:47.633Z,5.40
2019-02-23T14:51:42.333Z,5.30
2019-02-23T14:54:28.751Z,5.30
2019-02-23T14:57:15.073Z,5.20
2019-02-23T14:59:51.892Z,5.20
2019-02-23T15:02:39.501Z,5.20
2019-02-23T15:05:42.517Z,5.20
2019-02-23T15:08:36.123Z,5.10
2019-02-23T15:11:26.521Z,5.10
2019-02-23T15:14:12.716Z,5.10
2019-02-23T15:17:05.128Z,5.00
2019-02-23T15:20:00.399Z,4.90
2019-02-23T15:22:53.705Z,4.90
2019-02-23T15:25:48.453Z,4.80
2019-02-23T15:28:41.485Z,4.80
2019-02-23T15:31:23.326Z,4.70
2019-02-23T15:34:18.960Z,4.60
2019-02-23T15:37:00.858Z,4.60
2019-02-23T15:39:51.209Z,4.60
2019-02-23T15:42:54.595Z,4.50
2019-02-23T15:45:50.730Z,4.50
2019-02-23T15:48:33.658Z,4.50
2019-02-23T15:51:05.957Z,4.50
2019-02-23T15:53:38.918Z,4.40
2019-02-23T15:56:10.393Z,4.40
2019-02-23T15:58:41.138Z,4.40
2019-02-23T16:01:13.689Z,4.30
2019-02-23T16:03:43.547Z,4.30
2019-02-23T16:06:12.292Z,4.30
2019-02-23T16:08:44.651Z,4.30
2019-02-23T16:11:17.608Z,4.30
2019-02-23T16:13:48.500Z,4.30
2019-02-23T16:16:18.290Z,4.20
2019-02-23T16:18:47.052Z,4.20
2019-02-23T16:21:17.436Z,4.20
2019-02-23T16:23:47.926Z,4.20
2019-02-23T16:26:21.419Z,4.20
2019-02-23T16:28:55.919Z,4.10
2019-02-23T16:31:29.631Z,4.10
2019-02-23T16:34:03.439Z,4.10
2019-02-23T16:36:34.017Z,4.00
2019-02-23T16:39:10.568Z,4.00
2019-02-23T16:41:42.433Z,4.10
2019-02-23T16:44:13.489Z,4.10
2019-02-23T16:46:47.118Z,4.10
2019-02-23T16:49:19.283Z,4.00
2019-02-23T16:51:50.425Z,4.00
2019-02-23T16:54:20.240Z,4.00
2019-02-23T16:56:53.305Z,4.00
2019-02-23T16:59:25.669Z,4.00
2019-02-23T17:01:58.412Z,4.00
2019-02-23T17:04:30.947Z,4.00
2019-02-23T17:07:02.805Z,4.00
2019-02-23T17:09:34.580Z,4.00
2019-02-23T17:12:06.094Z,4.00
2019-02-23T17:14:36.291Z,3.90
2019-02-23T17:17:06.568Z,3.90
2019-02-23T17:19:37.562Z,3.90
2019-02-23T17:22:07.690Z,3.90
2019-02-23T17:24:39.724Z,3.90
2019-02-23T17:27:12.603Z,3.90
2019-02-23T17:29:43.892Z,3.90
2019-02-23T17:32:14.554Z,3.80
2019-02-23T17:34:47.016Z,3.90
2019-02-23T17:37:23.964Z,3.80
2019-02-23T17:39:57.396Z,3.80
2019-02-23T17:42:28.456Z,3.80
2019-02-23T17:45:00.673Z,3.80
2019-02-23T17:47:32.616Z,3.80
2019-02-23T17:50:03.536Z,3.80
2019-02-23T17:52:35.425Z,3.80
2019-02-23T17:55:06.902Z,3.80
2019-02-23T17:57:39.411Z,3.70
2019-02-23T18:00:09.049Z,3.70
2019-02-23T18:02:42.070Z,3.60
2019-02-23T18:05:14.949Z,3.60
2019-02-23T18:07:46.570Z,3.60
2019-02-23T18:10:17.268Z,3.60
2019-02-23T18:12:49.933Z,3.60
2019-02-23T18:15:19.668Z,3.50
2019-02-23T18:17:51.017Z,3.60
2019-02-23T18:20:19.732Z,3.60
2019-02-23T18:22:49.737Z,3.50
2019-02-23T18:25:20.520Z,3.50
2019-02-23T18:27:51.038Z,3.50
2019-02-23T18:30:22.693Z,3.50
2019-02-23T18:32:55.412Z,3.40
2019-02-23T18:35:25.500Z,3.40
2019-02-23T18:37:55.110Z,3.40
2019-02-23T18:40:26.404Z,3.40
2019-02-23T18:42:58.128Z,3.30
2019-02-23T18:45:32.048Z,3.30
2019-02-23T18:48:04.433Z,3.30
2019-02-23T18:50:35.453Z,3.30
2019-02-23T18:53:06.202Z,3.30
2019-02-23T18:55:41.025Z,3.30
2019-02-23T18:58:12.213Z,3.30
2019-02-23T19:00:45.390Z,3.30
2019-02-23T19:03:19.360Z,3.30
2019-02-23T19:05:52.938Z,3.30
2019-02-23T19:08:24.508Z,3.30
2019-02-23T19:10:55.782Z,3.30
2019-02-23T19:13:28.164Z,3.30
2019-02-23T19:16:01.232Z,3.30
2019-02-23T19:18:33.048Z,3.30
2019-02-23T19:21:05.017Z,3.30
2019-02-23T19:23:36.916Z,3.30
2019-02-23T19:26:11.389Z,3.30
2019-02-23T19:28:43.536Z,3.30
2019-02-23T19:31:17.172Z,3.20
2019-02-23T19:33:48.145Z,3.20
2019-02-23T19:36:19.060Z,3.20
2019-02-23T19:38:50.660Z,3.20
2019-02-23T19:41:21.428Z,3.20
2019-02-23T19:43:54.661Z,3.10
2019-02-23T19:46:28.281Z,3.10
2019-02-23T19:49:01.951Z,3.10
2019-02-23T19:51:34.648Z,3.10
2019-02-23T19:54:06.536Z,3.10
2019-02-23T19:56:46.478Z,3.10
2019-02-23T19:59:11.723Z,3.10
2019-02-23T20:01:42.808Z,3.10
2019-02-23T20:04:17.744Z,3.10
2019-02-23T20:06:49.273Z,3.00
2019-02-23T20:09:19.340Z,3.00
2019-02-23T20:11:50.697Z,3.00
2019-02-23T20:14:23.474Z,3.00
2019-02-23T20:16:54.893Z,2.90
2019-02-23T20:19:26.843Z,2.90
2019-02-23T20:21:58.260Z,2.90
2019-02-23T20:24:30.638Z,2.90
2019-02-23T20:27:06.958Z,2.80
2019-02-23T20:29:40.296Z,2.90
2019-02-23T20:32:12.784Z,2.80
2019-02-23T20:34:45.808Z,2.80
2019-02-23T20:37:16.790Z,2.90
2019-02-23T20:39:45.993Z,2.80
2019-02-23T20:42:17.080Z,2.90
2019-02-23T20:44:49.277Z,2.80
2019-02-23T20:47:22.725Z,2.80
2019-02-23T20:49:55.224Z,2.80
2019-02-23T20:52:27.736Z,2.80
2019-02-23T20:54:59.910Z,2.80
2019-02-23T20:57:32.393Z,2.80
2019-02-23T21:00:04.524Z,2.80
2019-02-23T21:02:54.612Z,2.80
2019-02-23T21:05:27.126Z,2.80
2019-02-23T21:07:58.680Z,2.80
2019-02-23T21:10:30.245Z,2.80
2019-02-23T21:13:02.760Z,2.80
2019-02-23T21:15:32.904Z,2.70
2019-02-23T21:18:02.900Z,2.70
2019-02-23T21:20:34.180Z,2.70
2019-02-23T21:23:04.275Z,2.70
2019-02-23T21:25:33.801Z,2.70
2019-02-23T21:28:03.852Z,2.70
2019-02-23T21:30:35.689Z,2.70
2019-02-23T21:33:09.165Z,2.70
2019-02-23T21:35:42.061Z,2.70
2019-02-23T21:38:12.335Z,2.70
2019-02-23T21:40:45.392Z,2.70
2019-02-23T21:43:19.345Z,2.70
2019-02-23T21:45:52.170Z,2.70
2019-02-23T21:48:22.688Z,2.70
2019-02-23T21:50:57.028Z,2.70
2019-02-23T21:53:29.709Z,2.70
2019-02-23T21:55:59.249Z,2.60
2019-02-23T21:58:32.905Z,2.60
2019-02-23T22:01:05.002Z,2.70
2019-02-23T22:03:37.754Z,2.60
2019-02-23T22:06:09.717Z,2.60
2019-02-23T22:08:43.334Z,2.60
2019-02-23T22:11:15.237Z,2.60
2019-02-23T22:13:48.678Z,2.60
2019-02-23T22:16:21.962Z,2.60
2019-02-23T22:18:52.264Z,2.50
2019-02-23T22:21:22.860Z,2.60
2019-02-23T22:23:53.784Z,2.50
2019-02-23T22:26:24.713Z,2.50
2019-02-23T22:28:55.537Z,2.50
2019-02-23T22:31:27.475Z,2.50
2019-02-23T22:33:59.960Z,2.50
2019-02-23T22:36:32.206Z,2.50
2019-02-23T22:39:04.842Z,2.50
2019-02-23T22:41:37.833Z,2.50
2019-02-23T22:44:09.616Z,2.50
2019-02-23T22:46:43.931Z,2.50
2019-02-23T22:49:16.531Z,2.50
2019-02-23T22:51:49.394Z,2.40
2019-02-23T22:54:20.877Z,2.40
2019-02-23T22:56:53.127Z,2.40
2019-02-23T22:59:24.022Z,2.40
2019-02-23T23:01:54.964Z,2.40
2019-02-23T23:04:30.340Z,2.40
2019-02-23T23:07:02.729Z,2.40
2019-02-23T23:09:34.616Z,2.40
2019-02-23T23:12:06.845Z,2.50
2019-02-23T23:14:41.158Z,2.50
2019-02-23T23:17:14.572Z,2.50
2019-02-23T23:19:47.332Z,2.50
2019-02-23T23:22:19.143Z,2.40
2019-02-23T23:24:50.124Z,2.50
2019-02-23T23:27:21.864Z,2.50
2019-02-23T23:29:52.584Z,2.50
2019-02-23T23:32:22.621Z,2.50
2019-02-23T23:34:52.557Z,2.50
2019-02-23T23:37:23.431Z,2.50
2019-02-23T23:39:53.738Z,2.40
2019-02-23T23:42:22.859Z,2.40
2019-02-23T23:44:52.233Z,2.40
2019-02-23T23:47:24.435Z,2.40
2019-02-23T23:49:57.573Z,2.40
2019-02-23T23:52:28.408Z,2.40
2019-02-23T23:55:02.162Z,2.30
2019-02-23T23:57:35.348Z,2.40
